K0S9 Airport Information

Runway Information
Runway 09 Length 3000 ft width 75 ft
Elevation 0 ft Threshold 0 ft Heading 104
Runway 27 Length 3000 ft Width 75 ft
Elevation 0 ft Threshold 850 ft Heading 337
Airport Frequencies
Type UNIC Name CTAF/UNICO Frequency 123 MHZ
Airport Navaids
Airport Weather Information & NOTAM
ADDS - METARS form results

(0114 UTC 25 March 2019)
Data provider http://aviationweather.gov/metar/data/
 
METAR text: K0S9 250055Z AUTO 11006KT 10SM CLR 13/06 A3015 RMK AO2
Conditions at: K0S9 (PORT TOWNSEND , WA, US) observed 0055 UTC 25 March 2019
Temperature: 13.0°C (55°F)
Dewpoint: 6.0°C (43°F) [RH = 62%]
Pressure (altimeter): 30.15 inches Hg (1021.1 mb)
Winds: from the ESE (110 degrees) at 7 MPH (6 knots; 3.1 m/s)
Visibility: 10 or more miles (16+ km)
Ceiling: at least 12,000 feet AGL
Clouds: sky clear below 12,000 feet AGL
Weather: automated observation with no human augmentation;
there may or may not be significant weather present at this time

METAR text: K0S9 250035Z AUTO 11008KT 6SM HZ FEW080 12/06 A3015 RMK AO2
Conditions at: K0S9 (PORT TOWNSEND , WA, US) observed 0035 UTC 25 March 2019
Temperature: 12.0°C (54°F)
Dewpoint: 6.0°C (43°F) [RH = 67%]
Pressure (altimeter): 30.15 inches Hg (1021.1 mb)
Winds: from the ESE (110 degrees) at 9 MPH (8 knots; 4.1 m/s)
Visibility: 6 miles (10 km)
Ceiling: at least 12,000 feet AGL
Clouds: few clouds at 8000 feet AGL
Weather: HZ  (haze)

METAR text: K0S9 250015Z AUTO 10008KT 10SM BKN085 13/05 A3016 RMK AO2
Conditions at: K0S9 (PORT TOWNSEND , WA, US) observed 0015 UTC 25 March 2019
Temperature: 13.0°C (55°F)
Dewpoint: 5.0°C (41°F) [RH = 58%]
Pressure (altimeter): 30.16 inches Hg (1021.4 mb)
Winds: from the E (100 degrees) at 9 MPH (8 knots; 4.1 m/s)
Visibility: 10 or more miles (16+ km)
Ceiling: 8500 feet AGL
Clouds: broken clouds at 8500 feet AGL
Weather: automated observation with no human augmentation;
there may or may not be significant weather present at this time